Time;durP1;ratioP1;P1;durP2;ratioP2;P2;SDS_P1;SDS_P2;PMS_P1;PMS_P2;Temp;Humidity;BMP_temperature;BMP_pressure;BME280_temperature;BME280_humidity;BME280_pressure;Samples;Min_cycle;Max_cycle;Signal;HPM_P1;HPM_P2
2022/07/11 00:02:23;;;;;;;0.50;0.50;;;;;;;28.14;38.64;99239.50;5081744;28;20373;-66
2022/07/11 00:04:48;;;;;;;0.70;0.50;;;;;;;28.16;38.59;99243.50;5084699;28;20039;-69
2022/07/11 00:07:15;;;;;;;0.80;0.60;;;;;;;28.16;38.54;99254.75;5084381;28;20512;-67
2022/07/11 00:09:41;;;;;;;0.50;0.47;;;;;;;28.18;38.60;99257.13;5091697;28;20411;-68
2022/07/11 00:12:08;;;;;;;0.73;0.60;;;;;;;28.16;38.59;99251.94;5089715;28;20499;-69
2022/07/11 00:14:34;;;;;;;0.95;0.73;;;;;;;28.15;38.52;99252.38;5090208;28;20618;-69
2022/07/11 00:16:59;;;;;;;0.70;0.60;;;;;;;28.13;38.53;99255.56;5094686;28;20503;-69
2022/07/11 00:19:25;;;;;;;0.77;0.60;;;;;;;28.14;38.62;99259.97;5091136;28;20123;-69
2022/07/11 00:21:51;;;;;;;2.47;0.55;;;;;;;28.16;38.77;99259.56;5107351;28;20051;-68
2022/07/11 00:24:19;;;;;;;0.80;0.50;;;;;;;28.14;38.61;99262.00;5088851;28;20048;-68
2022/07/11 00:26:46;;;;;;;0.95;0.63;;;;;;;28.15;38.70;99255.16;5093406;28;20161;-69
2022/07/11 00:29:11;;;;;;;1.20;0.60;;;;;;;28.11;38.69;99257.25;5087099;28;20075;-68
2022/07/11 00:31:37;;;;;;;0.52;0.50;;;;;;;28.12;38.57;99258.81;5086987;28;20067;-69
2022/07/11 00:34:02;;;;;;;0.90;0.60;;;;;;;28.12;38.71;99258.81;5087226;28;20545;-69
2022/07/11 00:36:28;;;;;;;0.45;0.40;;;;;;;28.14;38.72;99257.16;5087311;28;20105;-69
2022/07/11 00:38:53;;;;;;;0.50;0.47;;;;;;;28.11;38.77;99262.88;5101646;28;20062;-69
2022/07/11 00:41:19;;;;;;;0.65;0.60;;;;;;;28.11;38.53;99265.69;5091017;28;20096;-69
2022/07/11 00:43:55;;;;;;;0.70;0.50;;;;;;;28.11;38.57;99268.50;5091246;28;20032;-69
2022/07/11 00:46:22;;;;;;;0.80;0.52;;;;;;;28.12;38.65;99264.44;5098440;28;20089;-72
2022/07/11 00:48:47;;;;;;;0.70;0.60;;;;;;;28.09;38.54;99266.13;5100818;28;20100;-72
2022/07/11 00:51:13;;;;;;;0.60;0.47;;;;;;;28.11;38.54;99268.50;5088832;28;20067;-73
2022/07/11 00:53:40;;;;;;;0.60;0.47;;;;;;;28.13;38.56;99268.84;5096981;28;20069;-72
2022/07/11 00:56:07;;;;;;;0.73;0.50;;;;;;;28.09;38.66;99259.69;5094708;28;20046;-72
2022/07/11 00:58:34;;;;;;;0.40;0.40;;;;;;;28.09;38.72;99274.53;5101785;28;20052;-72
2022/07/11 01:01:01;;;;;;;0.57;0.50;;;;;;;28.09;38.66;99268.13;5090434;28;20032;-72
2022/07/11 01:03:26;;;;;;;0.82;0.55;;;;;;;28.10;38.59;99261.28;5094810;28;20516;-72
2022/07/11 01:05:52;;;;;;;0.98;0.60;;;;;;;28.09;38.71;99260.50;5090242;28;20040;-72
2022/07/11 01:08:18;;;;;;;0.90;0.60;;;;;;;28.11;38.58;99265.69;5096732;28;20038;-72
2022/07/11 01:10:43;;;;;;;0.52;0.50;;;;;;;28.11;38.64;99257.25;5088788;28;20420;-70
2022/07/11 01:13:09;;;;;;;0.75;0.60;;;;;;;28.09;38.57;99262.50;5093922;28;20036;-70
2022/07/11 01:15:35;;;;;;;0.93;0.73;;;;;;;28.07;38.63;99268.53;5090500;28;20424;-67
2022/07/11 01:18:01;;;;;;;1.08;0.57;;;;;;;28.07;38.79;99262.13;5089824;28;20048;-69
2022/07/11 01:20:27;;;;;;;0.85;0.60;;;;;;;28.04;38.74;99254.56;5086449;28;20054;-69
2022/07/11 01:22:56;;;;;;;0.68;0.60;;;;;;;28.06;38.63;99266.16;5091006;28;20182;-68
2022/07/11 01:25:30;;;;;;;0.60;0.50;;;;;;;28.05;38.61;99265.38;5088998;28;20458;-68
2022/07/11 01:28:04;;;;;;;0.75;0.60;;;;;;;28.05;38.66;99264.56;5103218;28;20510;-67
2022/07/11 01:30:34;;;;;;;1.30;0.52;;;;;;;28.04;38.51;99263.00;5089375;28;20123;-67
2022/07/11 01:32:59;;;;;;;0.80;0.60;;;;;;;28.00;38.53;99257.41;5101829;28;20052;-66
2022/07/11 01:35:26;;;;;;;0.73;0.60;;;;;;;28.02;38.68;99269.03;5096646;28;20070;-66
2022/07/11 01:37:52;;;;;;;1.05;0.68;;;;;;;28.03;38.62;99267.03;5099868;28;20093;-70
2022/07/11 01:40:17;;;;;;;0.70;0.60;;;;;;;28.00;38.68;99265.84;5092055;28;20044;-70
2022/07/11 01:42:43;;;;;;;0.85;0.70;;;;;;;28.04;38.66;99269.41;5096253;28;20410;-70
2022/07/11 01:45:10;;;;;;;0.82;0.68;;;;;;;28.04;38.37;99271.44;5084288;28;20511;-70
2022/07/11 01:47:35;;;;;;;0.73;0.60;;;;;;;28.04;38.68;99277.03;5101903;28;20036;-70
2022/07/11 01:50:01;;;;;;;0.50;0.50;;;;;;;28.02;38.70;99279.50;5089292;28;20040;-70
2022/07/11 01:52:27;;;;;;;0.80;0.60;;;;;;;28.00;38.65;99285.53;5093812;28;20078;-70
2022/07/11 01:54:53;;;;;;;0.45;0.45;;;;;;;28.04;38.54;99288.28;5094870;28;20127;-72
2022/07/11 01:57:18;;;;;;;0.65;0.50;;;;;;;28.02;38.48;99285.91;5090431;28;20114;-72
2022/07/11 01:59:43;;;;;;;0.98;0.70;;;;;;;28.05;38.54;99292.69;5104038;28;20066;-73
2022/07/11 02:02:09;;;;;;;0.85;0.57;;;;;;;28.01;38.62;99295.59;5092042;28;20036;-72
2022/07/11 02:04:34;;;;;;;1.08;0.52;;;;;;;28.01;38.69;99297.59;5094961;28;20067;-73
2022/07/11 02:07:00;;;;;;;0.60;0.60;;;;;;;27.98;38.62;99294.41;5088497;28;20047;-73
2022/07/11 02:09:25;;;;;;;0.95;0.55;;;;;;;27.99;38.64;99292.38;5089264;28;20032;-73
2022/07/11 02:11:51;;;;;;;0.70;0.55;;;;;;;27.99;38.64;99298.00;5091403;28;20048;-69
2022/07/11 02:14:16;;;;;;;0.50;0.50;;;;;;;28.00;38.63;99290.34;5086295;28;20735;-69
2022/07/11 02:16:41;;;;;;;0.60;0.52;;;;;;;27.98;38.66;99285.97;5085503;28;20385;-69
2022/07/11 02:19:07;;;;;;;0.82;0.63;;;;;;;27.94;38.74;99282.44;5083345;28;20051;-67
2022/07/11 02:21:33;;;;;;;0.82;0.65;;;;;;;28.00;38.80;99293.16;5094813;28;20079;-68
2022/07/11 02:23:59;;;;;;;0.60;0.52;;;;;;;27.97;38.63;99290.00;5087217;28;20470;-71
2022/07/11 02:26:24;;;;;;;0.60;0.50;;;;;;;27.95;38.59;99284.03;5104307;28;20039;-71
2022/07/11 02:28:49;;;;;;;0.88;0.60;;;;;;;27.97;38.59;99290.00;5092631;28;20039;-72
2022/07/11 02:31:15;;;;;;;0.80;0.70;;;;;;;27.93;38.72;99285.66;5094249;28;20043;-72
2022/07/11 02:33:40;;;;;;;0.70;0.55;;;;;;;27.96;38.73;99285.59;5087633;28;20500;-72
2022/07/11 02:36:07;;;;;;;0.80;0.60;;;;;;;27.95;38.78;99292.44;5102293;28;20979;-71
2022/07/11 02:38:33;;;;;;;0.80;0.60;;;;;;;27.97;38.60;99286.41;5101367;28;20461;-72
2022/07/11 02:40:59;;;;;;;0.60;0.60;;;;;;;27.94;38.64;99290.88;5098932;28;20040;-72
2022/07/11 02:43:25;;;;;;;0.60;0.50;;;;;;;27.95;38.59;99281.22;5086446;28;20611;-72
2022/07/11 02:45:51;;;;;;;0.75;0.60;;;;;;;27.94;38.61;99288.06;5073442;28;20032;-72
2022/07/11 02:48:16;;;;;;;0.65;0.52;;;;;;;27.91;38.82;99286.09;5091384;28;20488;-71
2022/07/11 02:50:41;;;;;;;1.20;0.80;;;;;;;27.91;38.66;99283.28;5083722;28;20048;-72
2022/07/11 02:53:07;;;;;;;0.75;0.60;;;;;;;27.93;38.66;99280.84;5095707;28;20044;-72
2022/07/11 02:55:32;;;;;;;0.40;0.40;;;;;;;27.94;38.69;99276.81;5100388;28;20040;-71
2022/07/11 02:57:58;;;;;;;0.88;0.70;;;;;;;27.94;38.36;99281.63;5100047;28;20052;-72
2022/07/11 03:00:23;;;;;;;0.52;0.50;;;;;;;27.93;38.71;99289.28;5092544;28;20032;-71
2022/07/11 03:02:49;;;;;;;0.68;0.60;;;;;;;27.93;38.43;99271.59;5100166;28;20040;-72
2022/07/11 03:05:14;;;;;;;0.60;0.52;;;;;;;27.93;38.69;99280.03;5088659;28;20336;-71
2022/07/11 03:07:40;;;;;;;0.93;0.60;;;;;;;27.90;38.60;99278.88;5089141;28;20046;-72
2022/07/11 03:10:06;;;;;;;0.50;0.50;;;;;;;27.92;38.43;99282.03;5091587;28;20119;-72
2022/07/11 03:12:31;;;;;;;1.10;0.70;;;;;;;27.92;38.58;99284.06;5084228;28;20039;-68
2022/07/11 03:14:56;;;;;;;0.70;0.50;;;;;;;27.91;38.62;99286.09;5087668;28;20039;-67
2022/07/11 03:17:22;;;;;;;0.57;0.50;;;;;;;27.89;38.74;99280.09;5102512;28;20046;-68
2022/07/11 03:19:48;;;;;;;0.55;0.50;;;;;;;27.90;38.74;99278.06;5092493;28;20503;-67
2022/07/11 03:22:15;;;;;;;0.60;0.57;;;;;;;27.90;38.48;99281.69;5090905;28;20028;-68
2022/07/11 03:24:41;;;;;;;0.70;0.63;;;;;;;27.91;38.65;99277.66;5086218;28;20503;-68
2022/07/11 03:27:07;;;;;;;0.55;0.50;;;;;;;27.91;38.55;99288.88;5087415;28;21055;-68
2022/07/11 03:29:33;;;;;;;0.70;0.60;;;;;;;27.91;38.66;99283.28;5083143;28;20048;-71
2022/07/11 03:31:59;;;;;;;0.50;0.50;;;;;;;27.90;38.77;99283.69;5101152;28;20052;-71
2022/07/11 03:34:24;;;;;;;0.82;0.60;;;;;;;27.92;38.74;99284.06;5091077;28;20242;-68
2022/07/11 03:36:50;;;;;;;0.50;0.50;;;;;;;27.89;38.53;99284.94;5088820;28;20028;-68
2022/07/11 03:39:15;;;;;;;0.98;0.70;;;;;;;27.89;38.56;99291.34;5068745;28;20052;-68
2022/07/11 03:41:41;;;;;;;1.02;0.60;;;;;;;27.89;38.55;99287.75;5086838;28;20729;-68
2022/07/11 03:44:07;;;;;;;0.70;0.50;;;;;;;27.89;38.69;99296.97;5090672;28;20075;-67
2022/07/11 03:46:32;;;;;;;0.60;0.55;;;;;;;27.86;38.76;99288.56;5093403;28;20036;-68
2022/07/11 03:48:58;;;;;;;0.55;0.43;;;;;;;27.89;38.60;99301.78;5091345;28;20048;-67
2022/07/11 03:51:24;;;;;;;0.50;0.47;;;;;;;27.87;38.71;99295.81;5096822;28;20055;-68
2022/07/11 03:53:49;;;;;;;0.60;0.50;;;;;;;27.86;38.56;99299.81;5093595;28;20044;-68
2022/07/11 03:56:17;;;;;;;0.40;0.40;;;;;;;27.87;38.56;99301.44;5087584;28;20032;-68
2022/07/11 03:58:43;;;;;;;0.45;0.45;;;;;;;27.87;38.64;99290.97;5090332;28;20096;-68
2022/07/11 04:01:09;;;;;;;0.93;0.70;;;;;;;27.84;38.75;99294.63;5100247;28;20040;-67
2022/07/11 04:03:34;;;;;;;0.98;0.73;;;;;;;27.85;38.51;99309.47;5087019;28;20218;-67
2022/07/11 04:06:00;;;;;;;0.70;0.55;;;;;;;27.84;38.60;99299.47;5086403;28;20040;-68
2022/07/11 04:08:25;;;;;;;0.85;0.68;;;;;;;27.82;38.72;99311.13;5089166;28;20111;-68
2022/07/11 04:10:50;;;;;;;0.98;0.60;;;;;;;27.85;38.64;99301.03;5093738;28;20040;-68
2022/07/11 04:13:16;;;;;;;0.80;0.60;;;;;;;27.85;38.49;99301.03;5085643;28;20037;-68
2022/07/11 04:15:41;;;;;;;0.60;0.57;;;;;;;27.82;38.55;99302.69;5085577;28;20823;-68
2022/07/11 04:18:07;;;;;;;0.95;0.65;;;;;;;27.81;38.57;99297.50;5084769;28;20040;-68
2022/07/11 04:20:32;;;;;;;0.85;0.70;;;;;;;27.82;38.59;99310.34;5093337;28;20040;-68
2022/07/11 04:22:58;;;;;;;0.88;0.60;;;;;;;27.83;38.58;99309.13;5101334;28;20056;-68
2022/07/11 04:25:24;;;;;;;0.90;0.65;;;;;;;27.81;38.53;99306.72;5096376;28;20135;-68
2022/07/11 04:27:49;;;;;;;0.63;0.50;;;;;;;27.79;38.54;99312.00;5090018;28;20420;-68
2022/07/11 04:30:14;;;;;;;1.63;0.60;;;;;;;27.79;38.53;99312.00;5091608;28;20049;-68
2022/07/11 04:32:40;;;;;;;0.60;0.60;;;;;;;27.80;38.51;99316.41;5099820;28;20145;-68
2022/07/11 04:35:06;;;;;;;0.63;0.60;;;;;;;27.82;38.37;99318.78;5092438;28;20066;-68
2022/07/11 04:37:31;;;;;;;0.63;0.50;;;;;;;27.80;38.59;99318.41;5091298;28;20042;-68
2022/07/11 04:39:57;;;;;;;0.55;0.50;;;;;;;27.81;38.71;99320.00;5091526;28;20048;-68
2022/07/11 04:42:22;;;;;;;0.50;0.50;;;;;;;27.80;38.66;99318.41;5084338;28;20045;-67
2022/07/11 04:44:48;;;;;;;1.38;0.70;;;;;;;27.81;38.66;99326.41;5077134;28;20055;-71
2022/07/11 04:47:13;;;;;;;0.75;0.60;;;;;;;27.80;38.56;99327.63;5084912;28;20384;-71
2022/07/11 04:49:39;;;;;;;1.05;0.70;;;;;;;27.84;38.68;99333.19;5094925;28;20031;-71
2022/07/11 04:52:05;;;;;;;1.10;0.75;;;;;;;27.79;38.79;99337.28;5092695;28;20408;-71
2022/07/11 04:54:30;;;;;;;0.80;0.70;;;;;;;27.79;38.63;99342.91;5085210;28;20066;-71
2022/07/11 04:56:56;;;;;;;0.98;0.70;;;;;;;27.81;38.80;99340.47;5088766;28;20032;-71
2022/07/11 04:59:23;;;;;;;0.65;0.60;;;;;;;27.80;38.66;99341.69;5083976;28;20101;-71
2022/07/11 05:01:49;;;;;;;0.70;0.60;;;;;;;27.82;38.84;99344.88;5086048;28;20036;-71
2022/07/11 05:04:15;;;;;;;0.70;0.50;;;;;;;27.84;38.81;99348.03;5086390;28;20535;-71
2022/07/11 05:06:40;;;;;;;0.93;0.68;;;;;;;27.83;38.84;99352.06;5087432;28;20066;-71
2022/07/11 05:09:07;;;;;;;0.60;0.50;;;;;;;27.85;38.72;99358.06;5096278;28;20047;-71
2022/07/11 05:11:34;;;;;;;0.70;0.60;;;;;;;27.88;38.81;99351.59;5080433;28;20084;-71
2022/07/11 05:13:59;;;;;;;0.90;0.60;;;;;;;27.91;38.65;99347.13;5091481;28;20043;-71
2022/07/11 05:16:25;;;;;;;0.70;0.55;;;;;;;27.94;38.57;99352.72;5087984;28;20040;-71
2022/07/11 05:18:50;;;;;;;0.85;0.60;;;;;;;27.96;38.70;99355.09;5100171;28;20101;-71
2022/07/11 05:21:21;;;;;;;0.88;0.50;;;;;;;27.98;38.56;99350.63;5088117;28;20028;-71
2022/07/11 05:23:47;;;;;;;0.50;0.50;;;;;;;28.00;38.63;99353.00;5095677;28;20035;-81
2022/07/11 05:26:14;;;;;;;1.02;0.75;;;;;;;28.02;38.98;99352.59;5082669;28;20105;-69
2022/07/11 05:28:40;;;;;;;0.70;0.57;;;;;;;28.04;39.07;99353.75;5088686;28;20044;-71
2022/07/11 05:31:05;;;;;;;0.70;0.60;;;;;;;28.06;38.98;99361.75;5084822;28;20051;-71
2022/07/11 05:33:31;;;;;;;1.15;0.55;;;;;;;28.09;38.81;99366.56;5084504;28;20043;-71
2022/07/11 05:35:56;;;;;;;0.80;0.50;;;;;;;28.14;38.72;99371.66;5100529;28;20657;-69
2022/07/11 05:38:22;;;;;;;0.63;0.60;;;;;;;28.16;38.67;99366.44;5084216;28;20185;-70
2022/07/11 05:40:48;;;;;;;2.20;0.50;;;;;;;28.17;38.42;99365.22;5087841;28;20158;-69
2022/07/11 05:43:13;;;;;;;0.80;0.60;;;;;;;28.18;38.55;99366.78;5089430;28;20054;-69
2022/07/11 05:45:39;;;;;;;0.63;0.50;;;;;;;28.19;38.44;99357.94;5097064;28;20408;-69
2022/07/11 05:48:04;;;;;;;0.63;0.55;;;;;;;28.19;38.33;99360.75;5082069;28;20048;-69
2022/07/11 05:50:30;;;;;;;0.57;0.50;;;;;;;28.22;38.42;99368.34;5084396;28;20768;-71
2022/07/11 05:52:57;;;;;;;0.55;0.50;;;;;;;28.22;38.14;99368.34;5091829;28;20048;-71
2022/07/11 05:55:23;;;;;;;0.85;0.60;;;;;;;28.24;38.02;99377.13;5088233;28;20075;-71
2022/07/11 05:57:48;;;;;;;0.60;0.60;;;;;;;28.23;37.90;99369.13;5080950;28;20068;-71
2022/07/11 06:00:14;;;;;;;0.98;0.52;;;;;;;28.27;37.96;99381.09;5093190;28;20132;-71
2022/07/11 06:02:40;;;;;;;1.00;0.50;;;;;;;28.26;37.44;99376.72;5094920;28;20554;-71
2022/07/11 06:05:05;;;;;;;1.75;0.60;;;;;;;28.20;38.15;99378.41;5095372;28;20040;-71
2022/07/11 06:10:15;;;;;;;0.73;0.63;;;;;;;28.08;37.98;99382.63;5081588;28;20063;-71
2022/07/11 06:12:41;;;;;;;0.73;0.60;;;;;;;28.05;37.93;99380.66;5087730;28;20035;-71
2022/07/11 06:15:07;;;;;;;0.68;0.55;;;;;;;28.06;37.91;99384.25;5089489;28;20068;-71
2022/07/11 06:17:32;;;;;;;0.63;0.50;;;;;;;28.05;37.98;99379.84;5084652;28;20136;-71
2022/07/11 06:19:58;;;;;;;1.50;0.68;;;;;;;28.04;38.17;99378.28;5090140;28;20499;-71
2022/07/11 06:22:23;;;;;;;0.60;0.50;;;;;;;28.04;37.75;99381.88;5098104;28;20036;-71
2022/07/11 06:24:48;;;;;;;0.50;0.50;;;;;;;27.97;37.79;99379.19;5086768;28;20043;-71
2022/07/11 06:27:14;;;;;;;0.73;0.60;;;;;;;28.03;37.83;99382.31;5101059;28;20040;-71
2022/07/11 06:29:40;;;;;;;0.90;0.50;;;;;;;28.00;37.99;99371.91;5095899;28;20482;-71
2022/07/11 06:32:06;;;;;;;0.63;0.50;;;;;;;27.98;38.04;99373.13;5091747;28;20055;-71
2022/07/11 06:34:31;;;;;;;0.73;0.60;;;;;;;28.01;38.09;99379.13;5091435;28;20040;-70
2022/07/11 06:36:57;;;;;;;0.50;0.35;;;;;;;28.03;38.28;99373.88;5091477;28;20058;-70
2022/07/11 06:39:22;;;;;;;0.70;0.50;;;;;;;28.02;37.89;99375.91;5095963;28;20410;-70
2022/07/11 06:41:49;;;;;;;0.63;0.50;;;;;;;28.06;37.88;99375.81;5095321;28;20046;-71
2022/07/11 06:44:14;;;;;;;0.57;0.47;;;;;;;28.05;37.83;99375.03;5090820;28;20047;-70
2022/07/11 06:46:39;;;;;;;0.82;0.50;;;;;;;28.07;37.54;99378.19;5089884;28;20097;-76
2022/07/11 06:49:05;;;;;;;0.90;0.68;;;;;;;28.08;37.80;99379.03;5092128;28;20083;-71
2022/07/11 06:51:30;;;;;;;1.50;0.70;;;;;;;28.06;37.78;99379.44;5093152;28;20040;-70
2022/07/11 06:53:55;;;;;;;0.55;0.40;;;;;;;28.07;37.75;99385.84;5097191;28;20042;-70
2022/07/11 06:56:21;;;;;;;0.50;0.50;;;;;;;28.07;37.67;99386.63;5090351;28;20590;-70
2022/07/11 06:58:47;;;;;;;0.80;0.60;;;;;;;28.06;37.60;99376.63;5099800;28;20514;-70
2022/07/11 07:01:12;;;;;;;0.50;0.40;;;;;;;28.10;37.54;99379.38;5087635;28;20113;-72
2022/07/11 07:03:38;;;;;;;2.42;0.52;;;;;;;28.11;37.37;99383.78;5089950;28;20506;-70
2022/07/11 07:06:05;;;;;;;1.48;0.45;;;;;;;27.94;37.63;99380.03;5092151;28;20032;-75
2022/07/11 07:08:31;;;;;;;3.13;0.60;;;;;;;27.53;38.18;99385.81;5091921;28;20511;-71
2022/07/11 07:10:57;;;;;;;1.30;0.70;;;;;;;27.18;38.29;99385.03;5100512;28;20496;-71
2022/07/11 07:13:25;;;;;;;3.97;0.60;;;;;;;26.94;38.01;99377.66;5095919;28;21748;-69
2022/07/11 07:15:52;;;;;;;2.60;0.55;;;;;;;26.65;40.17;99388.34;5080511;28;20040;-76
2022/07/11 07:18:18;;;;;;;1.48;0.70;;;;;;;26.55;41.77;99390.06;5102493;27;20082;-67
2022/07/11 07:20:43;;;;;;;1.40;0.65;;;;;;;26.60;40.40;99393.22;5098456;28;20071;-69
2022/07/11 07:23:08;;;;;;;6.00;0.70;;;;;;;26.46;39.18;99393.34;5093761;28;20070;-68
2022/07/11 07:25:34;;;;;;;1.40;0.80;;;;;;;26.23;38.98;99387.50;5089132;28;20071;-69
2022/07/11 07:28:00;;;;;;;5.68;0.70;;;;;;;26.21;41.61;99385.09;5097885;28;20074;-68
2022/07/11 07:30:25;;;;;;;3.50;0.80;;;;;;;26.26;42.11;99387.47;5098575;28;20074;-68
2022/07/11 07:32:51;;;;;;;1.75;0.80;;;;;;;26.39;40.80;99375.75;5093800;28;20046;-68
2022/07/11 07:35:16;;;;;;;3.83;0.60;;;;;;;26.40;39.66;99372.56;5099590;28;20042;-68
2022/07/11 07:37:41;;;;;;;1.48;0.60;;;;;;;26.23;42.24;99385.50;5099424;28;20050;-68
2022/07/11 07:40:07;;;;;;;2.85;0.70;;;;;;;26.28;42.29;99373.81;5100432;28;20047;-68
2022/07/11 07:42:33;;;;;;;1.75;0.68;;;;;;;26.40;41.99;99374.56;5096764;28;20036;-69
2022/07/11 07:44:58;;;;;;;1.50;0.80;;;;;;;26.31;40.83;99375.81;5088872;28;20054;-69
2022/07/11 07:47:23;;;;;;;1.10;0.60;;;;;;;26.19;40.19;99370.72;5088828;28;20048;-69
2022/07/11 07:49:49;;;;;;;1.23;0.77;;;;;;;26.04;43.33;99367.22;5106425;28;20458;-70
2022/07/11 07:52:15;;;;;;;1.92;0.90;;;;;;;26.21;41.87;99371.09;5098441;28;20047;-69
2022/07/11 07:54:41;;;;;;;5.93;1.73;;;;;;;26.20;41.30;99369.50;5102992;28;20036;-71
2022/07/11 07:57:06;;;;;;;4.30;1.52;;;;;;;26.22;40.72;99366.28;5100271;28;20043;-71
2022/07/11 07:59:32;;;;;;;6.85;2.55;;;;;;;26.17;40.75;99361.91;5083211;28;20509;-69
2022/07/11 08:01:58;;;;;;;8.07;2.85;;;;;;;26.08;39.77;99358.78;5085618;28;20032;-70
2022/07/11 08:04:23;;;;;;;6.85;2.60;;;;;;;26.03;40.62;99360.03;5086903;28;20039;-69
2022/07/11 08:06:49;;;;;;;5.63;2.53;;;;;;;25.99;41.52;99353.63;5085769;28;20055;-69
2022/07/11 08:09:15;;;;;;;4.32;2.20;;;;;;;26.17;41.21;99352.72;5105417;28;20419;-69
2022/07/11 08:11:40;;;;;;;3.90;2.08;;;;;;;26.22;39.81;99347.47;5103734;28;20043;-70
2022/07/11 08:14:07;;;;;;;5.35;2.25;;;;;;;26.08;39.39;99346.78;5095959;28;20042;-71
2022/07/11 08:16:33;;;;;;;5.05;1.92;;;;;;;26.01;42.04;99342.03;5102290;28;20559;-70
2022/07/11 08:19:01;;;;;;;3.50;1.52;;;;;;;26.12;41.64;99342.72;5087988;28;20043;-71
2022/07/11 08:21:27;;;;;;;4.28;1.75;;;;;;;26.37;41.17;99336.13;5103086;28;20050;-71
2022/07/11 08:23:54;;;;;;;8.25;1.50;;;;;;;26.58;40.79;99321.91;5101366;28;20057;-68
2022/07/11 08:26:20;;;;;;;3.20;1.30;;;;;;;26.78;40.15;99325.69;5100071;28;20546;-71
2022/07/11 08:28:46;;;;;;;4.93;1.70;;;;;;;26.89;39.71;99322.78;5102461;28;20048;-70
2022/07/11 08:31:11;;;;;;;6.20;1.30;;;;;;;26.95;39.08;99317.50;5077628;28;20039;-70
2022/07/11 08:33:37;;;;;;;2.90;1.30;;;;;;;27.00;39.52;99322.63;5076195;28;21359;-70
2022/07/11 08:36:03;;;;;;;2.72;1.10;;;;;;;27.01;39.37;99322.25;5089286;28;20140;-70
2022/07/11 08:38:28;;;;;;;2.47;1.00;;;;;;;27.10;39.29;99318.94;5092069;28;20574;-70
2022/07/11 08:40:55;;;;;;;3.25;1.00;;;;;;;27.13;38.26;99313.28;5088342;28;20090;-71
2022/07/11 08:43:30;;;;;;;3.05;1.13;;;;;;;27.11;39.12;99312.09;5091746;28;20054;-70
2022/07/11 08:45:57;;;;;;;1.92;0.98;;;;;;;27.13;38.66;99316.09;5096173;28;20761;-70
2022/07/11 08:48:23;;;;;;;2.08;0.75;;;;;;;27.21;38.47;99307.56;5097896;28;20574;-70
2022/07/11 08:50:52;;;;;;;3.05;1.10;;;;;;;27.14;38.99;99308.44;5094916;28;20039;-71
2022/07/11 08:53:18;;;;;;;1.60;0.75;;;;;;;27.15;38.56;99296.03;5089066;28;20036;-70
2022/07/11 08:55:43;;;;;;;3.63;1.00;;;;;;;27.21;38.65;99304.75;5094913;28;20040;-70
2022/07/11 08:58:09;;;;;;;2.40;1.08;;;;;;;27.20;37.93;99292.72;5098238;28;20051;-70
2022/07/11 09:00:36;;;;;;;3.83;1.02;;;;;;;27.15;39.12;99277.16;5095703;28;20526;-70
2022/07/11 09:03:03;;;;;;;2.67;1.00;;;;;;;27.21;38.71;99291.50;5098501;28;20126;-74
2022/07/11 09:05:31;;;;;;;4.00;1.00;;;;;;;27.26;38.49;99291.03;5093732;28;20047;-69
2022/07/11 09:07:56;;;;;;;2.88;1.10;;;;;;;27.24;37.62;99279.44;5096044;28;20043;-70
2022/07/11 09:10:22;;;;;;;3.55;0.98;;;;;;;27.25;38.52;99286.66;5101947;28;20051;-70
2022/07/11 09:13:01;;;;;;;3.25;1.00;;;;;;;27.25;38.65;99291.47;5097921;28;20407;-69
2022/07/11 09:15:37;;;;;;;3.78;1.00;;;;;;;27.24;37.83;99285.06;5093930;28;20542;-69
2022/07/11 09:18:28;;;;;;;3.20;1.00;;;;;;;27.20;38.69;99281.50;5095446;28;20415;-67
2022/07/11 09:26:48;;;;;;;2.20;0.95;;;;;;;27.23;38.48;99265.84;5096234;28;21033;-71
2022/07/11 09:29:24;;;;;;;2.00;0.98;;;;;;;27.28;37.92;99271.75;5092596;28;20424;-71
2022/07/11 09:31:50;;;;;;;3.72;1.00;;;;;;;27.28;37.72;99265.34;5096597;28;20403;-73
2022/07/11 09:34:17;;;;;;;2.13;0.93;;;;;;;27.24;38.37;99268.22;5098564;28;20149;-70
2022/07/11 09:36:44;;;;;;;2.58;1.10;;;;;;;27.26;38.56;99267.78;5095755;28;20062;-71
2022/07/11 09:39:12;;;;;;;5.78;0.90;;;;;;;27.26;37.69;99264.97;5092527;28;20052;-70
2022/07/11 09:41:38;;;;;;;1.95;0.90;;;;;;;27.26;38.77;99253.75;5098489;28;20040;-70
2022/07/11 09:44:33;;;;;;;2.58;1.00;;;;;;;27.22;38.80;99258.59;5096513;28;20053;-70
2022/07/11 09:47:00;;;;;;;2.15;0.90;;;;;;;27.26;37.95;99248.91;5086492;28;20047;-68
2022/07/11 09:49:46;;;;;;;2.72;1.20;;;;;;;27.21;39.04;99251.41;5097987;28;20039;-68
2022/07/11 09:52:14;;;;;;;3.30;1.10;;;;;;;27.20;38.91;99249.81;5096548;28;20066;-68
2022/07/11 09:54:56;;;;;;;3.70;1.00;;;;;;;27.29;38.05;99252.88;5098581;28;20028;-67
2022/07/11 09:57:48;;;;;;;6.35;1.00;;;;;;;27.26;38.64;99254.53;5106455;28;20047;-68
2022/07/11 10:00:14;;;;;;;2.95;1.27;;;;;;;27.29;38.70;99250.91;5092620;28;20046;-67
2022/07/11 10:02:39;;;;;;;2.35;1.10;;;;;;;27.35;38.09;99252.00;5092911;28;20410;-67
2022/07/11 10:05:06;;;;;;;2.30;0.93;;;;;;;27.31;38.61;99242.84;5095023;28;20067;-67
2022/07/11 10:07:31;;;;;;;5.55;0.98;;;;;;;27.24;38.92;99244.97;5082000;28;20040;-67
2022/07/11 10:09:59;;;;;;;2.08;1.02;;;;;;;27.28;38.51;99243.66;5100619;28;20046;-71
2022/07/11 10:12:26;;;;;;;1.55;0.80;;;;;;;27.36;38.20;99242.38;5079699;28;20058;-67
2022/07/11 10:14:53;;;;;;;2.75;1.23;;;;;;;27.27;38.41;99236.47;5108739;28;20126;-67
2022/07/11 10:17:42;;;;;;;2.53;0.93;;;;;;;27.25;38.66;99227.69;5103290;28;21641;-68
2022/07/11 10:20:11;;;;;;;2.45;1.02;;;;;;;27.32;38.34;99235.22;5096182;28;20118;-67
2022/07/11 10:22:40;;;;;;;4.40;0.90;;;;;;;27.28;39.25;99235.25;5097035;28;20046;-68
2022/07/11 10:25:18;;;;;;;2.08;0.95;;;;;;;27.28;38.71;99228.84;5080819;28;20047;-67
2022/07/11 10:28:12;;;;;;;2.53;1.30;;;;;;;27.32;38.01;99226.78;5094201;28;20067;-67
2022/07/11 10:30:52;;;;;;;2.42;0.93;;;;;;;27.29;39.10;99222.81;5101880;28;20051;-67
2022/07/11 10:33:18;;;;;;;4.00;1.00;;;;;;;27.33;38.72;99222.75;5100918;28;20040;-67
2022/07/11 10:35:46;;;;;;;3.22;1.10;;;;;;;27.33;38.64;99220.72;5096060;28;20055;-67
2022/07/11 10:38:13;;;;;;;2.63;0.90;;;;;;;27.30;38.26;99215.97;5093766;28;20121;-67
2022/07/11 10:40:58;;;;;;;1.45;0.80;;;;;;;27.30;38.94;99218.00;5097021;28;20039;-68
2022/07/11 10:43:38;;;;;;;2.30;0.80;;;;;;;27.34;38.56;99202.66;5103815;28;20039;-68
2022/07/11 10:46:09;;;;;;;1.48;0.80;;;;;;;27.26;37.82;99197.59;5106706;28;20044;-67
2022/07/11 10:49:07;;;;;;;6.15;1.05;;;;;;;27.25;38.98;99202.41;5109177;28;20131;-68
2022/07/11 10:51:44;;;;;;;2.47;0.90;;;;;;;27.24;38.84;99205.66;5101220;28;20051;-67
2022/07/11 10:54:21;;;;;;;1.67;0.93;;;;;;;27.25;38.15;99204.41;5096745;28;20395;-67
2022/07/11 10:57:01;;;;;;;1.02;0.80;;;;;;;27.26;39.27;99195.56;5103113;28;20096;-68
2022/07/11 10:59:26;;;;;;;2.10;0.95;;;;;;;27.34;39.11;99199.84;5113462;28;20043;-68
2022/07/11 11:02:07;;;;;;;1.48;0.80;;;;;;;27.34;38.20;99199.84;5100037;28;20047;-68
2022/07/11 11:04:42;;;;;;;1.80;1.10;;;;;;;27.32;39.39;99188.25;5094444;28;20068;-68
2022/07/11 11:07:35;;;;;;;0.77;0.60;;;;;;;27.37;39.13;99187.78;5095144;28;20233;-68
2022/07/11 11:10:17;;;;;;;1.17;0.85;;;;;;;27.34;39.39;99183.00;5096770;28;20046;-68
2022/07/11 11:13:04;;;;;;;1.55;0.80;;;;;;;27.37;39.53;99178.56;5099595;28;20054;-68
2022/07/11 11:15:45;;;;;;;2.17;0.73;;;;;;;27.32;38.53;99182.63;5102735;28;21651;-68
2022/07/11 11:18:34;;;;;;;1.25;0.75;;;;;;;27.31;39.88;99183.06;5091281;28;20054;-68
2022/07/11 11:21:02;;;;;;;1.23;0.70;;;;;;;27.36;39.42;99177.78;5089146;28;20109;-67
2022/07/11 11:23:31;;;;;;;3.38;1.00;;;;;;;27.33;38.76;99183.44;5090761;28;20089;-67
2022/07/11 11:26:20;;;;;;;1.00;0.60;;;;;;;27.34;40.27;99182.19;5093633;28;20051;-68
2022/07/11 11:29:06;;;;;;;0.95;0.70;;;;;;;27.41;40.22;99176.47;5098273;28;20039;-67
2022/07/11 11:31:32;;;;;;;2.47;0.77;;;;;;;27.41;39.15;99171.66;5098886;28;20048;-67
2022/07/11 11:33:59;;;;;;;1.00;0.70;;;;;;;27.46;40.50;99178.00;5101161;28;20353;-67
2022/07/11 11:36:26;;;;;;;1.35;0.70;;;;;;;27.49;39.81;99161.09;5095455;28;20704;-67
2022/07/11 11:38:52;;;;;;;0.75;0.63;;;;;;;27.45;39.42;99174.41;5102208;28;20044;-68
2022/07/11 11:41:30;;;;;;;1.90;0.77;;;;;;;27.41;40.90;99165.25;5103332;28;20052;-69
2022/07/11 11:44:00;;;;;;;1.40;0.70;;;;;;;27.40;41.04;99163.66;5098850;28;20036;-68
2022/07/11 11:46:36;;;;;;;2.20;0.85;;;;;;;27.47;40.15;99165.56;5098455;28;20048;-67